createdAt,value
2022-08-26T00:01:57.497Z,32.60
2022-08-26T00:04:30.350Z,28.80
2022-08-26T00:07:02.190Z,39.70
2022-08-26T00:09:37.344Z,45.80
2022-08-26T00:12:12.246Z,37.00
2022-08-26T00:14:44.668Z,34.50
2022-08-26T00:17:16.412Z,44.30
2022-08-26T00:19:48.038Z,34.10
2022-08-26T00:22:21.478Z,52.50
2022-08-26T00:24:53.545Z,35.10
2022-08-26T00:27:25.318Z,24.30
2022-08-26T00:29:57.919Z,28.60
2022-08-26T00:32:29.621Z,39.30
2022-08-26T00:35:01.308Z,36.10
2022-08-26T00:37:33.702Z,33.90
2022-08-26T00:40:11.952Z,27.00
2022-08-26T00:42:46.264Z,41.90
2022-08-26T00:45:19.644Z,35.30
2022-08-26T00:47:54.210Z,35.60
2022-08-26T00:50:30.672Z,31.50
2022-08-26T00:53:21.437Z,38.50
2022-08-26T00:56:04.797Z,34.90
2022-08-26T00:58:42.926Z,41.80
2022-08-26T01:01:15.819Z,39.50
2022-08-26T01:03:48.363Z,37.80
2022-08-26T01:06:20.716Z,37.00
2022-08-26T01:08:53.298Z,32.00
2022-08-26T01:11:25.675Z,34.80
2022-08-26T01:14:02.045Z,43.00
2022-08-26T01:16:35.439Z,48.00
2022-08-26T01:21:47.856Z,43.10
2022-08-26T01:24:20.270Z,36.40
2022-08-26T01:26:53.527Z,37.20
2022-08-26T01:29:26.193Z,51.90
2022-08-26T01:34:32.055Z,38.90
2022-08-26T01:37:10.173Z,42.30
2022-08-26T01:39:51.134Z,31.80
2022-08-26T01:42:25.864Z,37.80
2022-08-26T01:45:02.010Z,36.00
2022-08-26T01:47:37.487Z,40.00
2022-08-26T01:50:15.801Z,32.00
2022-08-26T01:53:02.389Z,31.80
2022-08-26T01:55:35.427Z,45.50
2022-08-26T01:58:23.745Z,48.10
2022-08-26T02:00:55.391Z,40.60
2022-08-26T02:03:28.267Z,43.40
2022-08-26T02:06:03.869Z,44.00
2022-08-26T02:08:39.988Z,40.80
2022-08-26T02:11:12.531Z,45.30
2022-08-26T02:13:46.116Z,51.00
2022-08-26T02:16:21.419Z,40.40
2022-08-26T02:18:54.825Z,44.20
2022-08-26T02:21:26.898Z,34.20
2022-08-26T02:24:08.459Z,39.80
2022-08-26T02:26:41.825Z,43.60
2022-08-26T02:29:21.413Z,41.70
2022-08-26T02:31:55.784Z,43.50
2022-08-26T02:34:31.914Z,38.90
2022-08-26T02:37:06.415Z,39.60
2022-08-26T02:39:41.012Z,38.10
2022-08-26T02:42:13.105Z,37.90
2022-08-26T02:44:45.393Z,46.00
2022-08-26T02:47:18.231Z,40.50
2022-08-26T02:49:50.132Z,43.40
2022-08-26T02:52:22.080Z,37.00
2022-08-26T02:54:54.257Z,47.40
2022-08-26T02:57:26.957Z,39.20
2022-08-26T02:59:59.102Z,36.80
2022-08-26T03:02:32.049Z,40.30
2022-08-26T03:05:04.717Z,41.00
2022-08-26T03:07:36.413Z,43.20
2022-08-26T03:12:41.399Z,45.50
2022-08-26T03:15:17.831Z,50.40
2022-08-26T03:17:50.679Z,51.90
2022-08-26T03:22:53.371Z,43.00
2022-08-26T03:25:28.181Z,47.80
2022-08-26T03:28:00.211Z,47.20
2022-08-26T03:30:45.444Z,50.10
2022-08-26T03:33:19.102Z,50.00
2022-08-26T03:35:52.163Z,44.40
2022-08-26T03:38:26.166Z,44.60
2022-08-26T03:40:58.320Z,47.40
2022-08-26T03:43:30.126Z,41.90
2022-08-26T03:46:05.408Z,44.20
2022-08-26T03:48:37.558Z,48.10
2022-08-26T03:51:18.161Z,45.50
2022-08-26T03:53:50.441Z,41.20
2022-08-26T03:56:22.350Z,45.80
2022-08-26T03:58:54.770Z,43.40
2022-08-26T04:01:26.496Z,42.20
2022-08-26T04:04:00.100Z,43.30
2022-08-26T04:06:36.164Z,46.10
2022-08-26T04:09:11.032Z,39.20
2022-08-26T04:11:44.724Z,40.50
2022-08-26T04:14:20.244Z,36.90
2022-08-26T04:16:53.572Z,37.80
2022-08-26T04:19:27.695Z,43.10
2022-08-26T04:21:59.654Z,38.40
2022-08-26T04:24:33.014Z,40.30
2022-08-26T04:27:05.034Z,42.50
2022-08-26T04:29:41.594Z,34.80
2022-08-26T04:32:13.588Z,35.30
2022-08-26T04:34:45.513Z,46.30
2022-08-26T04:37:18.425Z,44.40
2022-08-26T04:39:54.037Z,36.30
2022-08-26T04:42:26.345Z,37.20
2022-08-26T04:44:58.864Z,34.00
2022-08-26T04:47:32.471Z,38.50
2022-08-26T04:50:04.889Z,33.10
2022-08-26T04:52:39.390Z,37.90
2022-08-26T04:55:12.341Z,31.80
2022-08-26T04:57:45.745Z,35.60
2022-08-26T05:00:18.588Z,37.80
2022-08-26T05:02:51.481Z,35.90
2022-08-26T05:05:23.444Z,39.00
2022-08-26T05:07:55.276Z,35.00
2022-08-26T05:10:27.721Z,40.20
2022-08-26T05:15:32.338Z,37.20
2022-08-26T05:18:04.809Z,37.60
2022-08-26T05:20:42.059Z,36.80
2022-08-26T05:23:14.400Z,35.10
2022-08-26T05:28:19.780Z,30.90
2022-08-26T05:30:52.441Z,36.00
2022-08-26T05:35:54.877Z,43.50
2022-08-26T05:38:30.305Z,31.80
2022-08-26T05:41:02.372Z,33.60
2022-08-26T05:43:35.268Z,34.30
2022-08-26T05:46:10.008Z,35.10
2022-08-26T05:48:44.275Z,34.00
2022-08-26T05:51:16.272Z,34.20
2022-08-26T05:53:54.557Z,32.40
2022-08-26T05:56:27.906Z,38.60
2022-08-26T05:59:02.682Z,28.70
2022-08-26T06:01:36.696Z,27.80
2022-08-26T06:04:09.122Z,29.00
2022-08-26T06:06:41.629Z,32.10
2022-08-26T06:09:15.053Z,33.20
2022-08-26T06:11:50.029Z,35.30
2022-08-26T06:14:21.693Z,33.50
2022-08-26T06:16:53.604Z,38.80
2022-08-26T06:19:25.706Z,31.80
2022-08-26T06:22:24.937Z,28.60
2022-08-26T06:25:15.507Z,28.20
2022-08-26T06:27:48.861Z,30.20
2022-08-26T06:30:21.136Z,26.80
2022-08-26T06:32:54.348Z,26.60
2022-08-26T06:35:26.928Z,24.60
2022-08-26T06:37:58.808Z,26.80
2022-08-26T06:40:31.162Z,28.10
2022-08-26T06:43:02.895Z,21.60
2022-08-26T06:45:34.756Z,33.90
2022-08-26T06:48:08.570Z,34.80
2022-08-26T06:50:42.053Z,26.00
2022-08-26T06:53:15.388Z,32.80
2022-08-26T06:55:48.321Z,24.60
2022-08-26T06:58:23.565Z,22.60
2022-08-26T07:01:01.985Z,29.10
2022-08-26T07:03:39.480Z,23.70
2022-08-26T07:06:12.043Z,24.00
2022-08-26T07:08:43.989Z,30.80
2022-08-26T07:11:16.036Z,20.10
2022-08-26T07:13:48.889Z,30.00
2022-08-26T07:16:21.908Z,23.00
2022-08-26T07:18:56.145Z,34.00
2022-08-26T07:21:29.598Z,23.20
2022-08-26T07:24:01.783Z,21.20
2022-08-26T07:26:33.750Z,22.00
2022-08-26T07:29:06.853Z,25.30
2022-08-26T07:31:43.012Z,19.60
2022-08-26T07:34:14.998Z,20.80
2022-08-26T07:36:46.708Z,25.50
2022-08-26T07:39:20.924Z,21.80
2022-08-26T07:41:52.657Z,30.90
2022-08-26T07:44:24.623Z,25.00
2022-08-26T07:46:56.556Z,25.30
2022-08-26T07:49:29.655Z,28.50
2022-08-26T07:52:02.373Z,20.10
2022-08-26T07:57:05.084Z,22.40
2022-08-26T07:59:40.255Z,22.20
2022-08-26T08:02:12.112Z,20.90
2022-08-26T08:04:43.829Z,21.40
2022-08-26T08:07:16.346Z,19.80
2022-08-26T08:09:49.534Z,38.70
2022-08-26T08:12:21.796Z,21.30
2022-08-26T08:14:53.604Z,20.50
2022-08-26T08:17:25.362Z,25.80
2022-08-26T08:19:57.140Z,22.30
2022-08-26T08:25:00.104Z,24.00
2022-08-26T08:27:37.940Z,26.50
2022-08-26T08:30:13.722Z,24.90
2022-08-26T08:32:46.273Z,20.70
2022-08-26T08:35:21.123Z,20.40
2022-08-26T08:37:54.801Z,19.20
2022-08-26T08:40:29.248Z,18.60
2022-08-26T08:43:06.466Z,18.50
2022-08-26T08:45:43.444Z,17.40
2022-08-26T08:48:27.331Z,26.00
2022-08-26T08:51:08.572Z,25.00
2022-08-26T08:53:43.530Z,18.90
2022-08-26T08:56:25.487Z,18.50
2022-08-26T08:59:14.019Z,19.60
2022-08-26T09:01:56.560Z,18.70
2022-08-26T09:05:15.126Z,17.70
2022-08-26T09:07:50.304Z,22.80
2022-08-26T09:10:35.501Z,16.10
2022-08-26T09:13:16.354Z,21.30
2022-08-26T09:15:57.659Z,13.40
2022-08-26T09:18:46.133Z,16.20
2022-08-26T09:21:21.086Z,24.20
2022-08-26T09:23:57.032Z,17.80
2022-08-26T09:26:31.286Z,21.20
2022-08-26T09:29:05.261Z,16.70
2022-08-26T09:31:39.069Z,24.60
2022-08-26T09:34:19.137Z,27.40
2022-08-26T09:36:53.658Z,21.60
2022-08-26T09:39:37.897Z,26.60
2022-08-26T09:42:14.309Z,22.70
2022-08-26T09:45:00.473Z,10.90
2022-08-26T09:47:34.937Z,14.30
2022-08-26T09:50:13.216Z,20.20
2022-08-26T09:52:45.078Z,14.30
2022-08-26T09:55:23.097Z,10.90
2022-08-26T09:57:58.208Z,15.10
2022-08-26T10:00:35.050Z,17.30
2022-08-26T10:03:23.396Z,16.20
2022-08-26T10:06:01.146Z,13.90
2022-08-26T10:08:37.103Z,12.80
2022-08-26T10:11:18.836Z,21.80
2022-08-26T10:13:55.812Z,19.70
2022-08-26T10:16:33.272Z,13.60
2022-08-26T10:19:13.855Z,12.90
2022-08-26T10:21:54.890Z,17.20
2022-08-26T10:24:32.896Z,15.40
2022-08-26T10:27:23.908Z,16.30
2022-08-26T10:30:05.020Z,19.90
2022-08-26T10:32:41.863Z,15.30
2022-08-26T10:35:16.918Z,12.60
2022-08-26T10:37:53.567Z,9.60
2022-08-26T10:40:29.394Z,16.00
2022-08-26T10:43:11.414Z,17.40
2022-08-26T10:45:48.973Z,10.50
2022-08-26T10:48:35.561Z,17.20
2022-08-26T10:51:09.260Z,12.60
2022-08-26T10:53:51.406Z,13.00
2022-08-26T10:56:41.231Z,22.10
2022-08-26T10:59:24.665Z,14.70
2022-08-26T11:02:08.756Z,17.10
2022-08-26T11:04:49.522Z,20.80
2022-08-26T11:07:43.840Z,18.40
2022-08-26T11:11:04.728Z,16.90
2022-08-26T11:14:02.726Z,8.70
2022-08-26T11:16:43.232Z,12.60
2022-08-26T11:20:00.826Z,16.00
2022-08-26T11:22:38.039Z,19.50
2022-08-26T11:25:19.889Z,15.30
2022-08-26T11:28:00.755Z,16.50
2022-08-26T11:30:57.774Z,10.50
2022-08-26T11:33:51.195Z,13.30
2022-08-26T11:36:56.484Z,14.20
2022-08-26T11:39:36.814Z,13.60
2022-08-26T11:42:27.803Z,13.40
2022-08-26T11:45:04.719Z,8.10
2022-08-26T11:47:37.701Z,21.40
2022-08-26T11:50:12.678Z,15.60
2022-08-26T11:52:53.709Z,17.30
2022-08-26T11:55:25.595Z,18.50
2022-08-26T11:58:00.900Z,10.50
2022-08-26T12:00:40.192Z,13.60
2022-08-26T12:03:22.916Z,17.90
2022-08-26T12:05:57.211Z,15.20
2022-08-26T12:08:34.431Z,15.30
2022-08-26T12:11:10.060Z,20.50
2022-08-26T12:13:42.748Z,12.90
2022-08-26T12:16:26.523Z,16.40
2022-08-26T12:18:58.837Z,14.50
2022-08-26T12:21:34.814Z,16.30
2022-08-26T12:24:07.535Z,14.70
2022-08-26T12:26:40.497Z,9.30
2022-08-26T12:29:26.868Z,17.10
2022-08-26T12:32:13.530Z,11.30
2022-08-26T12:34:49.014Z,13.70
2022-08-26T12:37:21.117Z,13.00
2022-08-26T12:39:52.927Z,12.80
2022-08-26T12:42:43.079Z,17.00
2022-08-26T12:45:27.250Z,10.40
2022-08-26T12:48:02.334Z,15.30
2022-08-26T12:50:37.129Z,10.80
2022-08-26T12:53:21.085Z,15.70
2022-08-26T12:55:56.163Z,13.10
2022-08-26T12:58:31.677Z,15.10
2022-08-26T13:01:23.610Z,12.10
2022-08-26T13:06:31.400Z,9.10
2022-08-26T13:09:06.333Z,15.00
2022-08-26T13:12:02.161Z,9.20
2022-08-26T13:14:34.365Z,23.40
2022-08-26T13:17:06.445Z,15.50
2022-08-26T13:19:38.249Z,12.60
2022-08-26T13:22:12.969Z,10.00
2022-08-26T13:24:46.147Z,13.10
2022-08-26T13:27:20.566Z,11.00
2022-08-26T13:29:53.029Z,14.50
2022-08-26T13:32:27.283Z,15.30
2022-08-26T13:35:00.467Z,14.20
2022-08-26T13:37:37.458Z,13.80
2022-08-26T13:40:11.291Z,24.30
2022-08-26T13:42:49.900Z,16.70
2022-08-26T13:45:22.020Z,16.10
2022-08-26T13:47:53.821Z,13.10
2022-08-26T13:50:25.533Z,11.60
2022-08-26T13:52:57.370Z,13.50
2022-08-26T13:55:29.530Z,15.30
2022-08-26T14:00:32.350Z,21.00
2022-08-26T14:03:04.596Z,12.20
2022-08-26T14:05:36.476Z,11.00
2022-08-26T14:08:08.725Z,19.10
2022-08-26T14:13:10.923Z,11.10
2022-08-26T14:15:43.072Z,15.90
2022-08-26T14:20:51.470Z,11.10
2022-08-26T14:23:23.452Z,11.10
2022-08-26T14:31:03.666Z,14.30
2022-08-26T14:33:38.214Z,9.80
2022-08-26T14:36:29.048Z,17.70
2022-08-26T14:39:04.259Z,13.40
2022-08-26T14:41:39.416Z,17.20
2022-08-26T14:44:16.224Z,13.10
2022-08-26T14:46:50.532Z,17.90
2022-08-26T14:49:24.155Z,9.70
2022-08-26T14:51:56.431Z,13.20
2022-08-26T14:57:01.382Z,15.40
2022-08-26T14:59:35.667Z,10.70
2022-08-26T15:02:08.997Z,14.50
2022-08-26T15:04:45.513Z,12.50
2022-08-26T15:07:17.313Z,10.90
2022-08-26T15:09:49.185Z,12.60
2022-08-26T15:12:21.171Z,9.20
2022-08-26T15:14:53.010Z,17.70
2022-08-26T15:17:24.948Z,20.00
2022-08-26T15:19:56.768Z,13.50
2022-08-26T15:22:29.844Z,10.80
2022-08-26T15:25:02.231Z,11.30
2022-08-26T15:27:34.499Z,11.50
2022-08-26T15:30:07.969Z,10.20
2022-08-26T15:32:40.520Z,15.80
2022-08-26T15:35:12.661Z,13.80
2022-08-26T15:37:44.506Z,16.00
2022-08-26T15:40:18.403Z,7.20
2022-08-26T15:43:01.219Z,10.10
2022-08-26T15:45:43.380Z,19.70
2022-08-26T15:48:16.269Z,10.70
2022-08-26T15:50:54.107Z,13.70
2022-08-26T15:53:26.899Z,23.30
2022-08-26T15:55:59.772Z,20.00
2022-08-26T15:58:31.838Z,34.20
2022-08-26T16:01:04.485Z,16.60
2022-08-26T16:03:36.767Z,13.20
2022-08-26T16:08:39.910Z,20.90
2022-08-26T16:11:11.960Z,19.20
2022-08-26T16:16:14.644Z,19.00
2022-08-26T16:18:46.977Z,18.00
2022-08-26T16:21:20.668Z,13.60
2022-08-26T16:23:53.339Z,13.00
2022-08-26T16:26:28.177Z,15.40
2022-08-26T16:29:00.033Z,18.30
2022-08-26T16:31:32.233Z,20.60
2022-08-26T16:34:04.103Z,13.70
2022-08-26T16:36:37.022Z,13.60
2022-08-26T16:39:10.597Z,13.40
2022-08-26T16:41:42.440Z,8.60
2022-08-26T16:44:14.554Z,10.60
2022-08-26T16:46:47.153Z,14.90
2022-08-26T16:49:19.117Z,12.30
2022-08-26T16:51:50.864Z,21.30
2022-08-26T16:54:22.614Z,14.60
2022-08-26T16:56:54.387Z,14.10
2022-08-26T16:59:26.228Z,9.80
2022-08-26T17:01:58.243Z,13.00
2022-08-26T17:07:00.658Z,14.90
2022-08-26T17:09:32.947Z,15.80
2022-08-26T17:14:34.973Z,13.00
2022-08-26T17:17:07.044Z,16.80
2022-08-26T17:19:46.856Z,31.50
2022-08-26T17:22:19.808Z,9.50
2022-08-26T17:24:51.632Z,8.60
2022-08-26T17:27:23.597Z,15.10
2022-08-26T17:29:55.267Z,18.80
2022-08-26T17:32:27.078Z,20.50
2022-08-26T17:34:59.174Z,10.10
2022-08-26T17:37:30.859Z,14.50
2022-08-26T17:40:03.115Z,11.70
2022-08-26T17:42:37.625Z,11.00
2022-08-26T17:45:11.435Z,13.10
2022-08-26T17:47:44.088Z,15.60
2022-08-26T17:50:18.105Z,18.20
2022-08-26T17:52:50.007Z,12.60
2022-08-26T17:55:22.195Z,15.60
2022-08-26T17:57:54.519Z,16.50
2022-08-26T18:00:28.328Z,16.00
2022-08-26T18:03:01.332Z,18.70
2022-08-26T18:05:33.112Z,15.70
2022-08-26T18:08:05.489Z,11.80
2022-08-26T18:10:37.756Z,15.50
2022-08-26T18:13:09.729Z,20.40
2022-08-26T18:15:45.302Z,11.90
2022-08-26T18:18:17.588Z,11.70
2022-08-26T18:23:33.488Z,26.50
2022-08-26T18:26:05.447Z,14.30
2022-08-26T18:28:37.340Z,20.70
2022-08-26T18:31:14.354Z,8.30
2022-08-26T18:33:46.895Z,14.20
2022-08-26T18:36:22.020Z,18.10
2022-08-26T18:38:54.481Z,18.70
2022-08-26T18:41:29.141Z,20.50
2022-08-26T18:44:01.567Z,9.90
2022-08-26T18:49:05.050Z,16.70
2022-08-26T18:51:37.914Z,12.50
2022-08-26T18:54:11.604Z,11.00
2022-08-26T18:56:43.881Z,15.00
2022-08-26T18:59:17.424Z,13.90
2022-08-26T19:01:50.706Z,14.80
2022-08-26T19:04:23.151Z,22.80
2022-08-26T19:06:57.061Z,15.40
2022-08-26T19:09:31.632Z,14.20
2022-08-26T19:12:05.134Z,13.50
2022-08-26T19:14:37.379Z,12.10
2022-08-26T19:17:09.540Z,24.60
2022-08-26T19:19:41.358Z,10.30
2022-08-26T19:22:13.314Z,20.00
2022-08-26T19:24:45.133Z,25.90
2022-08-26T19:27:17.496Z,13.80
2022-08-26T19:29:49.506Z,12.30
2022-08-26T19:32:24.258Z,20.20
2022-08-26T19:34:56.732Z,15.50
2022-08-26T19:40:01.269Z,14.00
2022-08-26T19:42:33.058Z,16.70
2022-08-26T19:45:24.309Z,15.70
2022-08-26T19:47:58.414Z,11.30
2022-08-26T19:50:32.739Z,21.00
2022-08-26T19:53:05.941Z,14.80
2022-08-26T19:55:38.089Z,13.10
2022-08-26T19:58:11.759Z,19.30
2022-08-26T20:00:43.754Z,14.40
2022-08-26T20:05:49.344Z,23.60
2022-08-26T20:08:22.565Z,17.00
2022-08-26T20:10:55.142Z,14.30
2022-08-26T20:13:26.915Z,12.50
2022-08-26T20:15:59.117Z,18.90
2022-08-26T20:18:45.177Z,15.10
2022-08-26T20:21:29.405Z,11.70
2022-08-26T20:24:04.047Z,13.40
2022-08-26T20:26:38.188Z,14.60
2022-08-26T20:29:12.101Z,21.60
2022-08-26T20:31:45.148Z,14.40
2022-08-26T20:34:19.708Z,13.60
2022-08-26T20:36:52.346Z,17.50
2022-08-26T20:41:55.691Z,15.20
2022-08-26T20:44:28.924Z,16.70
2022-08-26T20:47:00.786Z,17.30
2022-08-26T20:49:33.204Z,22.00
2022-08-26T20:52:07.321Z,15.80
2022-08-26T20:54:39.129Z,19.90
2022-08-26T20:57:11.073Z,17.40
2022-08-26T20:59:43.613Z,11.80
2022-08-26T21:04:45.766Z,16.20
2022-08-26T21:07:17.738Z,16.40
2022-08-26T21:09:49.647Z,17.00
2022-08-26T21:12:23.619Z,14.50
2022-08-26T21:14:55.460Z,17.90
2022-08-26T21:17:27.455Z,16.10
2022-08-26T21:19:59.310Z,21.70
2022-08-26T21:22:31.674Z,15.50
2022-08-26T21:25:04.258Z,16.80
2022-08-26T21:27:37.427Z,17.80
2022-08-26T21:30:11.996Z,13.70
2022-08-26T21:32:44.436Z,17.60
2022-08-26T21:37:46.614Z,18.90
2022-08-26T21:40:18.776Z,23.50
2022-08-26T21:42:50.864Z,17.90
2022-08-26T21:45:23.050Z,17.80
2022-08-26T21:47:54.909Z,13.00
2022-08-26T21:50:29.535Z,13.20
2022-08-26T21:53:01.254Z,20.20
2022-08-26T21:55:38.606Z,18.60
2022-08-26T21:58:10.977Z,17.30
2022-08-26T22:00:49.512Z,19.50
2022-08-26T22:03:21.400Z,17.00
2022-08-26T22:05:53.784Z,19.50
2022-08-26T22:08:28.035Z,21.70
2022-08-26T22:11:01.310Z,19.40
2022-08-26T22:13:37.709Z,15.70
2022-08-26T22:16:11.398Z,24.60
2022-08-26T22:18:43.850Z,20.30
2022-08-26T22:21:18.412Z,21.00
2022-08-26T22:23:50.380Z,13.50
2022-08-26T22:29:00.084Z,23.30
2022-08-26T22:31:38.362Z,15.80
2022-08-26T22:34:13.236Z,18.20
2022-08-26T22:36:47.070Z,14.40
2022-08-26T22:39:22.688Z,15.40
2022-08-26T22:41:55.260Z,16.30
2022-08-26T22:46:57.359Z,14.50
2022-08-26T22:49:29.745Z,17.20
2022-08-26T22:52:01.674Z,19.40
2022-08-26T22:54:33.503Z,17.40
2022-08-26T22:57:05.573Z,19.40
2022-08-26T22:59:37.514Z,14.50
2022-08-26T23:02:09.304Z,15.50
2022-08-26T23:04:44.375Z,22.10
2022-08-26T23:07:16.485Z,19.00
2022-08-26T23:09:48.340Z,16.40
2022-08-26T23:12:20.119Z,20.70
2022-08-26T23:14:52.186Z,16.50
2022-08-26T23:17:24.050Z,16.20
2022-08-26T23:19:58.200Z,18.70
2022-08-26T23:25:00.402Z,13.40
2022-08-26T23:27:32.344Z,19.30
2022-08-26T23:30:04.527Z,19.30
2022-08-26T23:32:36.485Z,16.40
2022-08-26T23:35:10.813Z,16.40
2022-08-26T23:37:48.125Z,20.40
2022-08-26T23:40:26.341Z,19.20
2022-08-26T23:43:00.611Z,16.00
2022-08-26T23:45:32.976Z,19.30
2022-08-26T23:48:05.269Z,22.80
2022-08-26T23:50:54.981Z,24.30
2022-08-26T23:53:27.076Z,20.50
2022-08-26T23:55:58.858Z,15.70
2022-08-26T23:58:30.749Z,23.10
